sensor_id;sensor_type;location;lat;lon;timestamp;P1;durP1;ratioP1;P2;durP2;ratioP2
22382;SDS011;11359;45.802;13.530;2023-01-28T00:01:50;3.58;;;2.55;;
22382;SDS011;11359;45.802;13.530;2023-01-28T00:04:15;2.60;;;2.03;;
22382;SDS011;11359;45.802;13.530;2023-01-28T00:06:42;2.80;;;1.88;;
22382;SDS011;11359;45.802;13.530;2023-01-28T00:09:08;3.25;;;2.17;;
22382;SDS011;11359;45.802;13.530;2023-01-28T00:11:34;3.03;;;2.17;;
22382;SDS011;11359;45.802;13.530;2023-01-28T00:14:00;2.28;;;1.70;;
22382;SDS011;11359;45.802;13.530;2023-01-28T00:16:28;3.05;;;2.13;;
22382;SDS011;11359;45.802;13.530;2023-01-28T00:18:54;2.45;;;1.75;;
22382;SDS011;11359;45.802;13.530;2023-01-28T00:21:20;2.70;;;1.95;;
22382;SDS011;11359;45.802;13.530;2023-01-28T00:23:50;1.77;;;1.30;;
22382;SDS011;11359;45.802;13.530;2023-01-28T00:26:18;2.03;;;1.50;;
22382;SDS011;11359;45.802;13.530;2023-01-28T00:28:45;1.95;;;1.50;;
22382;SDS011;11359;45.802;13.530;2023-01-28T00:31:16;1.92;;;1.50;;
22382;SDS011;11359;45.802;13.530;2023-01-28T00:33:47;2.53;;;1.85;;
22382;SDS011;11359;45.802;13.530;2023-01-28T00:36:14;2.08;;;1.70;;
22382;SDS011;11359;45.802;13.530;2023-01-28T00:38:41;2.05;;;1.40;;
22382;SDS011;11359;45.802;13.530;2023-01-28T00:41:14;2.20;;;1.60;;
22382;SDS011;11359;45.802;13.530;2023-01-28T00:43:41;1.90;;;1.50;;
22382;SDS011;11359;45.802;13.530;2023-01-28T00:46:09;2.80;;;2.00;;
22382;SDS011;11359;45.802;13.530;2023-01-28T00:48:36;2.05;;;1.40;;
22382;SDS011;11359;45.802;13.530;2023-01-28T00:51:04;2.05;;;1.60;;
22382;SDS011;11359;45.802;13.530;2023-01-28T00:53:30;1.67;;;1.25;;
22382;SDS011;11359;45.802;13.530;2023-01-28T00:55:56;1.65;;;1.35;;
22382;SDS011;11359;45.802;13.530;2023-01-28T00:58:22;1.48;;;1.20;;
22382;SDS011;11359;45.802;13.530;2023-01-28T01:00:48;2.13;;;1.63;;
22382;SDS011;11359;45.802;13.530;2023-01-28T01:03:15;1.50;;;1.20;;
22382;SDS011;11359;45.802;13.530;2023-01-28T01:05:41;1.38;;;1.15;;
22382;SDS011;11359;45.802;13.530;2023-01-28T01:08:07;1.90;;;1.40;;
22382;SDS011;11359;45.802;13.530;2023-01-28T01:10:32;1.63;;;1.10;;
22382;SDS011;11359;45.802;13.530;2023-01-28T01:12:58;1.95;;;1.23;;
22382;SDS011;11359;45.802;13.530;2023-01-28T01:15:24;1.50;;;1.30;;
22382;SDS011;11359;45.802;13.530;2023-01-28T01:17:50;1.50;;;1.17;;
22382;SDS011;11359;45.802;13.530;2023-01-28T01:20:19;1.48;;;1.10;;
22382;SDS011;11359;45.802;13.530;2023-01-28T01:22:46;1.38;;;1.00;;
22382;SDS011;11359;45.802;13.530;2023-01-28T01:25:13;1.73;;;1.20;;
22382;SDS011;11359;45.802;13.530;2023-01-28T01:27:39;2.33;;;1.40;;
22382;SDS011;11359;45.802;13.530;2023-01-28T01:30:06;1.75;;;1.30;;
22382;SDS011;11359;45.802;13.530;2023-01-28T01:32:33;1.63;;;1.10;;
22382;SDS011;11359;45.802;13.530;2023-01-28T01:35:00;2.00;;;1.40;;
22382;SDS011;11359;45.802;13.530;2023-01-28T01:37:26;1.55;;;1.23;;
22382;SDS011;11359;45.802;13.530;2023-01-28T01:39:52;1.52;;;1.15;;
22382;SDS011;11359;45.802;13.530;2023-01-28T01:42:18;1.95;;;1.45;;
22382;SDS011;11359;45.802;13.530;2023-01-28T01:44:52;2.30;;;1.65;;
22382;SDS011;11359;45.802;13.530;2023-01-28T01:47:32;1.30;;;1.20;;
22382;SDS011;11359;45.802;13.530;2023-01-28T01:52:58;1.23;;;0.98;;
22382;SDS011;11359;45.802;13.530;2023-01-28T01:55:29;1.63;;;1.17;;
22382;SDS011;11359;45.802;13.530;2023-01-28T01:57:58;2.17;;;1.40;;
22382;SDS011;11359;45.802;13.530;2023-01-28T02:00:28;2.60;;;1.30;;
22382;SDS011;11359;45.802;13.530;2023-01-28T02:02:53;1.95;;;1.40;;
22382;SDS011;11359;45.802;13.530;2023-01-28T02:05:21;1.80;;;1.20;;
22382;SDS011;11359;45.802;13.530;2023-01-28T02:07:47;1.45;;;1.05;;
22382;SDS011;11359;45.802;13.530;2023-01-28T02:10:19;1.35;;;1.15;;
22382;SDS011;11359;45.802;13.530;2023-01-28T02:12:46;2.13;;;1.20;;
22382;SDS011;11359;45.802;13.530;2023-01-28T02:15:20;1.50;;;1.10;;
22382;SDS011;11359;45.802;13.530;2023-01-28T02:17:48;1.88;;;1.20;;
22382;SDS011;11359;45.802;13.530;2023-01-28T02:20:18;2.40;;;1.60;;
22382;SDS011;11359;45.802;13.530;2023-01-28T02:25:53;2.60;;;1.73;;
22382;SDS011;11359;45.802;13.530;2023-01-28T02:33:58;2.58;;;1.60;;
22382;SDS011;11359;45.802;13.530;2023-01-28T02:36:38;2.53;;;1.65;;
22382;SDS011;11359;45.802;13.530;2023-01-28T02:39:15;2.13;;;1.50;;
22382;SDS011;11359;45.802;13.530;2023-01-28T02:41:45;2.08;;;1.50;;
22382;SDS011;11359;45.802;13.530;2023-01-28T02:44:15;2.00;;;1.58;;
22382;SDS011;11359;45.802;13.530;2023-01-28T02:46:40;2.50;;;1.70;;
22382;SDS011;11359;45.802;13.530;2023-01-28T02:52:21;3.08;;;1.77;;
22382;SDS011;11359;45.802;13.530;2023-01-28T03:01:05;2.78;;;1.80;;
22382;SDS011;11359;45.802;13.530;2023-01-28T03:06:35;2.20;;;1.50;;
22382;SDS011;11359;45.802;13.530;2023-01-28T03:09:06;1.80;;;1.45;;
22382;SDS011;11359;45.802;13.530;2023-01-28T03:14:38;2.15;;;1.50;;
22382;SDS011;11359;45.802;13.530;2023-01-28T03:17:26;3.00;;;2.00;;
22382;SDS011;11359;45.802;13.530;2023-01-28T03:20:15;3.95;;;2.70;;
22382;SDS011;11359;45.802;13.530;2023-01-28T03:23:00;3.40;;;2.35;;
22382;SDS011;11359;45.802;13.530;2023-01-28T03:25:52;3.58;;;2.50;;
22382;SDS011;11359;45.802;13.530;2023-01-28T03:28:39;2.78;;;2.00;;
22382;SDS011;11359;45.802;13.530;2023-01-28T03:31:24;3.85;;;2.80;;
22382;SDS011;11359;45.802;13.530;2023-01-28T03:34:09;4.40;;;3.00;;
22382;SDS011;11359;45.802;13.530;2023-01-28T03:36:54;4.53;;;3.00;;
22382;SDS011;11359;45.802;13.530;2023-01-28T03:39:24;4.93;;;3.30;;
22382;SDS011;11359;45.802;13.530;2023-01-28T03:42:10;3.38;;;2.38;;
22382;SDS011;11359;45.802;13.530;2023-01-28T03:44:38;3.95;;;2.65;;
22382;SDS011;11359;45.802;13.530;2023-01-28T03:47:17;3.92;;;2.95;;
22382;SDS011;11359;45.802;13.530;2023-01-28T03:49:48;4.20;;;2.78;;
22382;SDS011;11359;45.802;13.530;2023-01-28T03:52:18;3.72;;;2.55;;
22382;SDS011;11359;45.802;13.530;2023-01-28T03:54:46;4.30;;;2.75;;
22382;SDS011;11359;45.802;13.530;2023-01-28T03:57:15;4.72;;;3.00;;
22382;SDS011;11359;45.802;13.530;2023-01-28T03:59:42;3.45;;;2.58;;
22382;SDS011;11359;45.802;13.530;2023-01-28T04:02:07;4.45;;;3.00;;
22382;SDS011;11359;45.802;13.530;2023-01-28T04:04:35;3.55;;;2.45;;
22382;SDS011;11359;45.802;13.530;2023-01-28T04:07:05;5.35;;;3.15;;
22382;SDS011;11359;45.802;13.530;2023-01-28T04:09:33;5.53;;;3.60;;
22382;SDS011;11359;45.802;13.530;2023-01-28T04:12:00;3.58;;;2.60;;
22382;SDS011;11359;45.802;13.530;2023-01-28T04:14:26;3.65;;;2.40;;
22382;SDS011;11359;45.802;13.530;2023-01-28T04:16:52;3.70;;;2.58;;
22382;SDS011;11359;45.802;13.530;2023-01-28T04:19:21;3.05;;;2.17;;
22382;SDS011;11359;45.802;13.530;2023-01-28T04:21:47;3.05;;;2.33;;
22382;SDS011;11359;45.802;13.530;2023-01-28T04:24:13;3.10;;;2.13;;
22382;SDS011;11359;45.802;13.530;2023-01-28T04:26:39;3.67;;;2.45;;
22382;SDS011;11359;45.802;13.530;2023-01-28T04:29:05;4.05;;;2.95;;
22382;SDS011;11359;45.802;13.530;2023-01-28T04:31:31;5.40;;;3.50;;
22382;SDS011;11359;45.802;13.530;2023-01-28T04:33:57;5.30;;;3.30;;
22382;SDS011;11359;45.802;13.530;2023-01-28T04:36:23;4.43;;;3.33;;
22382;SDS011;11359;45.802;13.530;2023-01-28T04:38:49;4.82;;;3.67;;
22382;SDS011;11359;45.802;13.530;2023-01-28T04:41:14;4.85;;;3.30;;
22382;SDS011;11359;45.802;13.530;2023-01-28T04:43:40;4.60;;;3.28;;
22382;SDS011;11359;45.802;13.530;2023-01-28T04:46:06;4.28;;;3.08;;
22382;SDS011;11359;45.802;13.530;2023-01-28T04:48:32;4.45;;;2.92;;
22382;SDS011;11359;45.802;13.530;2023-01-28T04:50:59;3.75;;;2.58;;
22382;SDS011;11359;45.802;13.530;2023-01-28T04:53:44;3.70;;;2.20;;
22382;SDS011;11359;45.802;13.530;2023-01-28T04:56:10;2.88;;;2.00;;
22382;SDS011;11359;45.802;13.530;2023-01-28T04:58:35;2.80;;;1.80;;
22382;SDS011;11359;45.802;13.530;2023-01-28T05:01:01;2.55;;;1.67;;
22382;SDS011;11359;45.802;13.530;2023-01-28T05:03:27;2.45;;;1.70;;
22382;SDS011;11359;45.802;13.530;2023-01-28T05:05:52;3.28;;;2.00;;
22382;SDS011;11359;45.802;13.530;2023-01-28T05:08:18;2.55;;;1.75;;
22382;SDS011;11359;45.802;13.530;2023-01-28T05:10:44;3.00;;;1.88;;
22382;SDS011;11359;45.802;13.530;2023-01-28T05:13:09;3.40;;;2.65;;
22382;SDS011;11359;45.802;13.530;2023-01-28T05:15:35;3.67;;;2.25;;
22382;SDS011;11359;45.802;13.530;2023-01-28T05:18:01;3.72;;;2.40;;
22382;SDS011;11359;45.802;13.530;2023-01-28T05:20:26;3.22;;;2.20;;
22382;SDS011;11359;45.802;13.530;2023-01-28T05:22:52;3.35;;;2.30;;
22382;SDS011;11359;45.802;13.530;2023-01-28T05:25:18;3.50;;;2.35;;
22382;SDS011;11359;45.802;13.530;2023-01-28T05:27:48;2.92;;;1.98;;
22382;SDS011;11359;45.802;13.530;2023-01-28T05:30:15;3.03;;;2.05;;
22382;SDS011;11359;45.802;13.530;2023-01-28T05:32:41;2.97;;;1.85;;
22382;SDS011;11359;45.802;13.530;2023-01-28T05:35:07;2.17;;;1.70;;
22382;SDS011;11359;45.802;13.530;2023-01-28T05:37:33;2.83;;;2.03;;
22382;SDS011;11359;45.802;13.530;2023-01-28T05:39:59;2.78;;;1.92;;
22382;SDS011;11359;45.802;13.530;2023-01-28T05:42:24;3.22;;;1.98;;
22382;SDS011;11359;45.802;13.530;2023-01-28T05:44:50;3.47;;;2.17;;
22382;SDS011;11359;45.802;13.530;2023-01-28T05:47:15;2.90;;;1.80;;
22382;SDS011;11359;45.802;13.530;2023-01-28T05:49:41;3.42;;;1.70;;
22382;SDS011;11359;45.802;13.530;2023-01-28T05:52:07;3.28;;;2.30;;
22382;SDS011;11359;45.802;13.530;2023-01-28T05:54:33;3.05;;;2.10;;
22382;SDS011;11359;45.802;13.530;2023-01-28T05:56:58;2.88;;;2.05;;
22382;SDS011;11359;45.802;13.530;2023-01-28T05:59:24;3.63;;;2.10;;
22382;SDS011;11359;45.802;13.530;2023-01-28T06:01:49;3.42;;;2.22;;
22382;SDS011;11359;45.802;13.530;2023-01-28T06:04:15;2.67;;;2.00;;
22382;SDS011;11359;45.802;13.530;2023-01-28T06:06:43;3.20;;;2.33;;
22382;SDS011;11359;45.802;13.530;2023-01-28T06:09:09;3.13;;;2.28;;
22382;SDS011;11359;45.802;13.530;2023-01-28T06:11:35;3.38;;;2.40;;
22382;SDS011;11359;45.802;13.530;2023-01-28T06:14:01;3.63;;;2.35;;
22382;SDS011;11359;45.802;13.530;2023-01-28T06:16:26;3.22;;;2.13;;
22382;SDS011;11359;45.802;13.530;2023-01-28T06:18:52;3.05;;;2.00;;
22382;SDS011;11359;45.802;13.530;2023-01-28T06:21:18;2.38;;;1.55;;
22382;SDS011;11359;45.802;13.530;2023-01-28T06:23:43;2.10;;;1.63;;
22382;SDS011;11359;45.802;13.530;2023-01-28T06:26:09;2.50;;;1.70;;
22382;SDS011;11359;45.802;13.530;2023-01-28T06:28:34;2.33;;;1.50;;
22382;SDS011;11359;45.802;13.530;2023-01-28T06:31:00;1.92;;;1.40;;
22382;SDS011;11359;45.802;13.530;2023-01-28T06:33:26;2.33;;;1.60;;
22382;SDS011;11359;45.802;13.530;2023-01-28T06:35:53;3.45;;;1.40;;
22382;SDS011;11359;45.802;13.530;2023-01-28T06:38:19;3.22;;;2.10;;
22382;SDS011;11359;45.802;13.530;2023-01-28T06:40:49;2.20;;;1.73;;
22382;SDS011;11359;45.802;13.530;2023-01-28T06:43:19;2.70;;;1.70;;
22382;SDS011;11359;45.802;13.530;2023-01-28T06:45:51;3.65;;;2.40;;
22382;SDS011;11359;45.802;13.530;2023-01-28T06:48:18;3.65;;;2.35;;
22382;SDS011;11359;45.802;13.530;2023-01-28T06:50:45;3.75;;;2.58;;
22382;SDS011;11359;45.802;13.530;2023-01-28T06:53:12;3.72;;;2.60;;
22382;SDS011;11359;45.802;13.530;2023-01-28T06:55:38;5.25;;;3.50;;
22382;SDS011;11359;45.802;13.530;2023-01-28T06:58:03;6.43;;;4.20;;
22382;SDS011;11359;45.802;13.530;2023-01-28T07:00:29;6.13;;;3.58;;
22382;SDS011;11359;45.802;13.530;2023-01-28T07:02:55;5.22;;;3.67;;
22382;SDS011;11359;45.802;13.530;2023-01-28T07:05:21;5.28;;;3.72;;
22382;SDS011;11359;45.802;13.530;2023-01-28T07:07:47;6.53;;;4.30;;
22382;SDS011;11359;45.802;13.530;2023-01-28T07:10:13;4.97;;;3.65;;
22382;SDS011;11359;45.802;13.530;2023-01-28T07:12:38;5.03;;;3.83;;
22382;SDS011;11359;45.802;13.530;2023-01-28T07:15:04;4.78;;;3.70;;
22382;SDS011;11359;45.802;13.530;2023-01-28T07:17:31;5.30;;;3.83;;
22382;SDS011;11359;45.802;13.530;2023-01-28T07:19:56;5.45;;;3.97;;
22382;SDS011;11359;45.802;13.530;2023-01-28T07:22:22;5.80;;;3.88;;
22382;SDS011;11359;45.802;13.530;2023-01-28T07:24:48;6.05;;;3.30;;
22382;SDS011;11359;45.802;13.530;2023-01-28T07:27:13;4.65;;;3.20;;
22382;SDS011;11359;45.802;13.530;2023-01-28T07:29:39;6.03;;;4.13;;
22382;SDS011;11359;45.802;13.530;2023-01-28T07:32:05;6.68;;;4.30;;
22382;SDS011;11359;45.802;13.530;2023-01-28T07:34:31;4.80;;;3.88;;
22382;SDS011;11359;45.802;13.530;2023-01-28T07:36:57;5.18;;;3.80;;
22382;SDS011;11359;45.802;13.530;2023-01-28T07:39:23;4.90;;;3.83;;
22382;SDS011;11359;45.802;13.530;2023-01-28T07:41:49;6.78;;;4.82;;
22382;SDS011;11359;45.802;13.530;2023-01-28T07:44:15;5.78;;;4.00;;
22382;SDS011;11359;45.802;13.530;2023-01-28T07:46:40;5.53;;;3.92;;
22382;SDS011;11359;45.802;13.530;2023-01-28T07:49:06;5.35;;;4.18;;
22382;SDS011;11359;45.802;13.530;2023-01-28T07:51:32;5.10;;;3.85;;
22382;SDS011;11359;45.802;13.530;2023-01-28T07:53:57;4.38;;;3.35;;
22382;SDS011;11359;45.802;13.530;2023-01-28T07:56:23;4.50;;;3.10;;
22382;SDS011;11359;45.802;13.530;2023-01-28T07:58:51;4.43;;;3.13;;
22382;SDS011;11359;45.802;13.530;2023-01-28T08:01:16;4.03;;;2.95;;
22382;SDS011;11359;45.802;13.530;2023-01-28T08:03:43;4.10;;;2.88;;
22382;SDS011;11359;45.802;13.530;2023-01-28T08:06:09;4.45;;;3.20;;
22382;SDS011;11359;45.802;13.530;2023-01-28T08:08:35;4.05;;;3.00;;
22382;SDS011;11359;45.802;13.530;2023-01-28T08:11:07;4.30;;;3.03;;
22382;SDS011;11359;45.802;13.530;2023-01-28T08:13:34;4.67;;;3.00;;
22382;SDS011;11359;45.802;13.530;2023-01-28T08:16:00;5.05;;;3.75;;
22382;SDS011;11359;45.802;13.530;2023-01-28T08:18:26;9.15;;;6.47;;
22382;SDS011;11359;45.802;13.530;2023-01-28T08:20:55;8.18;;;5.78;;
22382;SDS011;11359;45.802;13.530;2023-01-28T08:23:22;7.10;;;5.25;;
22382;SDS011;11359;45.802;13.530;2023-01-28T08:25:50;8.32;;;6.30;;
22382;SDS011;11359;45.802;13.530;2023-01-28T08:28:17;9.50;;;6.70;;
22382;SDS011;11359;45.802;13.530;2023-01-28T08:30:42;8.90;;;6.28;;
22382;SDS011;11359;45.802;13.530;2023-01-28T08:33:09;7.95;;;5.32;;
22382;SDS011;11359;45.802;13.530;2023-01-28T08:35:36;6.40;;;4.57;;
22382;SDS011;11359;45.802;13.530;2023-01-28T08:38:03;6.03;;;4.30;;
22382;SDS011;11359;45.802;13.530;2023-01-28T08:40:31;5.03;;;3.80;;
22382;SDS011;11359;45.802;13.530;2023-01-28T08:42:57;5.63;;;3.55;;
22382;SDS011;11359;45.802;13.530;2023-01-28T08:45:25;5.70;;;3.20;;
22382;SDS011;11359;45.802;13.530;2023-01-28T08:50:20;4.15;;;3.00;;
22382;SDS011;11359;45.802;13.530;2023-01-28T08:52:47;4.15;;;2.80;;
22382;SDS011;11359;45.802;13.530;2023-01-28T08:55:14;4.47;;;2.97;;
22382;SDS011;11359;45.802;13.530;2023-01-28T08:57:40;4.50;;;3.10;;
22382;SDS011;11359;45.802;13.530;2023-01-28T09:00:06;4.07;;;2.90;;
22382;SDS011;11359;45.802;13.530;2023-01-28T09:02:35;4.55;;;2.97;;
22382;SDS011;11359;45.802;13.530;2023-01-28T09:05:01;4.80;;;3.25;;
22382;SDS011;11359;45.802;13.530;2023-01-28T09:07:28;5.68;;;3.63;;
22382;SDS011;11359;45.802;13.530;2023-01-28T09:09:53;6.00;;;4.50;;
22382;SDS011;11359;45.802;13.530;2023-01-28T09:12:19;5.22;;;3.85;;
22382;SDS011;11359;45.802;13.530;2023-01-28T09:14:45;4.30;;;3.30;;
22382;SDS011;11359;45.802;13.530;2023-01-28T09:17:10;3.42;;;2.65;;
22382;SDS011;11359;45.802;13.530;2023-01-28T09:19:36;3.50;;;2.90;;
22382;SDS011;11359;45.802;13.530;2023-01-28T09:22:04;3.10;;;2.45;;
22382;SDS011;11359;45.802;13.530;2023-01-28T09:24:30;3.50;;;2.60;;
22382;SDS011;11359;45.802;13.530;2023-01-28T09:26:56;3.33;;;2.20;;
22382;SDS011;11359;45.802;13.530;2023-01-28T09:29:21;3.45;;;2.50;;
22382;SDS011;11359;45.802;13.530;2023-01-28T09:31:47;2.65;;;2.10;;
22382;SDS011;11359;45.802;13.530;2023-01-28T09:34:13;2.70;;;1.80;;
22382;SDS011;11359;45.802;13.530;2023-01-28T09:36:38;3.70;;;2.72;;
22382;SDS011;11359;45.802;13.530;2023-01-28T09:39:04;3.15;;;2.22;;
22382;SDS011;11359;45.802;13.530;2023-01-28T09:44:13;3.05;;;2.15;;
22382;SDS011;11359;45.802;13.530;2023-01-28T09:46:59;3.03;;;2.10;;
22382;SDS011;11359;45.802;13.530;2023-01-28T09:49:32;2.35;;;1.70;;
22382;SDS011;11359;45.802;13.530;2023-01-28T09:52:03;2.63;;;2.03;;
22382;SDS011;11359;45.802;13.530;2023-01-28T09:54:32;2.67;;;1.90;;
22382;SDS011;11359;45.802;13.530;2023-01-28T09:57:06;2.65;;;2.03;;
22382;SDS011;11359;45.802;13.530;2023-01-28T09:59:42;3.20;;;2.15;;
22382;SDS011;11359;45.802;13.530;2023-01-28T10:13:52;2.58;;;1.98;;
22382;SDS011;11359;45.802;13.530;2023-01-28T10:19:13;2.67;;;1.80;;
22382;SDS011;11359;45.802;13.530;2023-01-28T10:21:48;2.30;;;1.90;;
22382;SDS011;11359;45.802;13.530;2023-01-28T10:26:53;2.75;;;1.85;;
22382;SDS011;11359;45.802;13.530;2023-01-28T10:29:24;1.88;;;1.63;;
22382;SDS011;11359;45.802;13.530;2023-01-28T10:31:54;1.83;;;1.55;;
22382;SDS011;11359;45.802;13.530;2023-01-28T10:34:23;2.67;;;1.90;;
22382;SDS011;11359;45.802;13.530;2023-01-28T10:36:49;2.60;;;2.00;;
22382;SDS011;11359;45.802;13.530;2023-01-28T10:39:17;2.90;;;1.98;;
22382;SDS011;11359;45.802;13.530;2023-01-28T10:41:45;3.00;;;2.10;;
22382;SDS011;11359;45.802;13.530;2023-01-28T10:44:15;3.08;;;2.10;;
22382;SDS011;11359;45.802;13.530;2023-01-28T10:46:48;2.90;;;2.00;;
22382;SDS011;11359;45.802;13.530;2023-01-28T10:49:21;2.72;;;2.20;;
22382;SDS011;11359;45.802;13.530;2023-01-28T10:51:51;3.00;;;2.20;;
22382;SDS011;11359;45.802;13.530;2023-01-28T10:56:54;2.75;;;2.10;;
22382;SDS011;11359;45.802;13.530;2023-01-28T11:01:57;2.78;;;2.13;;
22382;SDS011;11359;45.802;13.530;2023-01-28T11:04:34;2.67;;;2.08;;
22382;SDS011;11359;45.802;13.530;2023-01-28T11:07:01;2.38;;;1.88;;
22382;SDS011;11359;45.802;13.530;2023-01-28T11:09:32;2.58;;;2.08;;
22382;SDS011;11359;45.802;13.530;2023-01-28T11:12:10;3.20;;;2.58;;
22382;SDS011;11359;45.802;13.530;2023-01-28T11:14:56;2.88;;;2.47;;
22382;SDS011;11359;45.802;13.530;2023-01-28T11:17:25;3.25;;;2.20;;
22382;SDS011;11359;45.802;13.530;2023-01-28T11:19:59;3.13;;;2.20;;
22382;SDS011;11359;45.802;13.530;2023-01-28T11:22:40;4.07;;;2.85;;
22382;SDS011;11359;45.802;13.530;2023-01-28T11:27:58;3.20;;;2.33;;
22382;SDS011;11359;45.802;13.530;2023-01-28T11:30:33;3.63;;;2.10;;
22382;SDS011;11359;45.802;13.530;2023-01-28T11:35:30;2.53;;;2.03;;
22382;SDS011;11359;45.802;13.530;2023-01-28T11:37:59;3.40;;;2.33;;
22382;SDS011;11359;45.802;13.530;2023-01-28T11:40:25;2.90;;;2.05;;
22382;SDS011;11359;45.802;13.530;2023-01-28T11:42:55;2.42;;;1.60;;
22382;SDS011;11359;45.802;13.530;2023-01-28T11:45:36;2.55;;;2.03;;
22382;SDS011;11359;45.802;13.530;2023-01-28T11:48:13;3.00;;;1.85;;
22382;SDS011;11359;45.802;13.530;2023-01-28T11:50:59;3.22;;;2.00;;
22382;SDS011;11359;45.802;13.530;2023-01-28T11:58:40;2.88;;;2.00;;
22382;SDS011;11359;45.802;13.530;2023-01-28T12:01:15;2.83;;;2.15;;
22382;SDS011;11359;45.802;13.530;2023-01-28T12:04:05;3.17;;;2.50;;
22382;SDS011;11359;45.802;13.530;2023-01-28T12:06:42;3.10;;;2.30;;
22382;SDS011;11359;45.802;13.530;2023-01-28T12:29:26;3.38;;;2.22;;
22382;SDS011;11359;45.802;13.530;2023-01-28T12:35:00;3.60;;;2.35;;
22382;SDS011;11359;45.802;13.530;2023-01-28T12:40:16;2.75;;;2.05;;
22382;SDS011;11359;45.802;13.530;2023-01-28T12:42:53;3.05;;;2.10;;
22382;SDS011;11359;45.802;13.530;2023-01-28T12:45:35;2.58;;;2.10;;
22382;SDS011;11359;45.802;13.530;2023-01-28T12:48:12;2.15;;;1.67;;
22382;SDS011;11359;45.802;13.530;2023-01-28T12:56:39;3.10;;;2.10;;
22382;SDS011;11359;45.802;13.530;2023-01-28T13:01:43;3.00;;;2.13;;
22382;SDS011;11359;45.802;13.530;2023-01-28T13:09:18;3.22;;;2.42;;
22382;SDS011;11359;45.802;13.530;2023-01-28T13:11:47;3.75;;;2.83;;
22382;SDS011;11359;45.802;13.530;2023-01-28T13:14:15;4.90;;;3.47;;
22382;SDS011;11359;45.802;13.530;2023-01-28T13:16:43;4.25;;;3.00;;
22382;SDS011;11359;45.802;13.530;2023-01-28T13:21:44;3.55;;;2.72;;
22382;SDS011;11359;45.802;13.530;2023-01-28T13:29:30;4.10;;;3.00;;
22382;SDS011;11359;45.802;13.530;2023-01-28T13:32:00;3.75;;;2.80;;
22382;SDS011;11359;45.802;13.530;2023-01-28T13:34:32;3.67;;;2.80;;
22382;SDS011;11359;45.802;13.530;2023-01-28T13:37:49;3.60;;;2.60;;
22382;SDS011;11359;45.802;13.530;2023-01-28T13:39:51;3.08;;;2.47;;
22382;SDS011;11359;45.802;13.530;2023-01-28T13:42:55;2.90;;;2.42;;
22382;SDS011;11359;45.802;13.530;2023-01-28T13:45:30;3.90;;;2.80;;
22382;SDS011;11359;45.802;13.530;2023-01-28T13:50:58;3.53;;;2.88;;
22382;SDS011;11359;45.802;13.530;2023-01-28T13:56:02;4.15;;;3.22;;
22382;SDS011;11359;45.802;13.530;2023-01-28T14:01:31;3.55;;;2.60;;
22382;SDS011;11359;45.802;13.530;2023-01-28T14:09:46;3.83;;;3.05;;
22382;SDS011;11359;45.802;13.530;2023-01-28T14:18:43;4.82;;;3.50;;
22382;SDS011;11359;45.802;13.530;2023-01-28T14:21:11;4.25;;;3.28;;
22382;SDS011;11359;45.802;13.530;2023-01-28T14:23:43;5.63;;;4.15;;
22382;SDS011;11359;45.802;13.530;2023-01-28T14:28:58;5.72;;;4.30;;
22382;SDS011;11359;45.802;13.530;2023-01-28T14:31:28;6.63;;;4.55;;
22382;SDS011;11359;45.802;13.530;2023-01-28T14:34:05;4.75;;;3.78;;
22382;SDS011;11359;45.802;13.530;2023-01-28T14:36:50;7.63;;;5.50;;
22382;SDS011;11359;45.802;13.530;2023-01-28T14:39:24;5.70;;;4.50;;
22382;SDS011;11359;45.802;13.530;2023-01-28T14:41:52;6.57;;;4.43;;
22382;SDS011;11359;45.802;13.530;2023-01-28T14:44:22;6.63;;;5.03;;
22382;SDS011;11359;45.802;13.530;2023-01-28T14:49:44;6.55;;;4.70;;
22382;SDS011;11359;45.802;13.530;2023-01-28T14:57:51;6.65;;;5.20;;
22382;SDS011;11359;45.802;13.530;2023-01-28T15:00:27;6.22;;;4.80;;
22382;SDS011;11359;45.802;13.530;2023-01-28T15:02:55;6.25;;;4.68;;
22382;SDS011;11359;45.802;13.530;2023-01-28T15:05:22;7.18;;;5.38;;
22382;SDS011;11359;45.802;13.530;2023-01-28T15:07:50;6.68;;;4.50;;
22382;SDS011;11359;45.802;13.530;2023-01-28T15:12:55;6.00;;;4.60;;
22382;SDS011;11359;45.802;13.530;2023-01-28T15:15:30;6.95;;;5.20;;
22382;SDS011;11359;45.802;13.530;2023-01-28T15:20:45;6.22;;;4.75;;
22382;SDS011;11359;45.802;13.530;2023-01-28T15:23:14;5.57;;;4.03;;
22382;SDS011;11359;45.802;13.530;2023-01-28T15:25:46;5.55;;;4.35;;
22382;SDS011;11359;45.802;13.530;2023-01-28T15:28:24;6.13;;;4.60;;
22382;SDS011;11359;45.802;13.530;2023-01-28T15:30:52;6.35;;;4.68;;
22382;SDS011;11359;45.802;13.530;2023-01-28T15:33:19;6.70;;;5.35;;
22382;SDS011;11359;45.802;13.530;2023-01-28T15:35:46;7.00;;;5.25;;
22382;SDS011;11359;45.802;13.530;2023-01-28T15:38:12;6.43;;;4.78;;
22382;SDS011;11359;45.802;13.530;2023-01-28T15:40:39;6.22;;;4.95;;
22382;SDS011;11359;45.802;13.530;2023-01-28T15:43:10;7.60;;;5.32;;
22382;SDS011;11359;45.802;13.530;2023-01-28T15:45:48;7.00;;;5.43;;
22382;SDS011;11359;45.802;13.530;2023-01-28T15:48:19;7.45;;;5.68;;
22382;SDS011;11359;45.802;13.530;2023-01-28T15:50:56;8.02;;;5.80;;
22382;SDS011;11359;45.802;13.530;2023-01-28T15:53:34;8.68;;;6.18;;
22382;SDS011;11359;45.802;13.530;2023-01-28T15:56:07;8.73;;;6.35;;
22382;SDS011;11359;45.802;13.530;2023-01-28T15:58:34;7.85;;;5.80;;
22382;SDS011;11359;45.802;13.530;2023-01-28T16:03:37;10.43;;;7.57;;
22382;SDS011;11359;45.802;13.530;2023-01-28T16:06:04;11.48;;;7.88;;
22382;SDS011;11359;45.802;13.530;2023-01-28T16:08:41;11.02;;;7.82;;
22382;SDS011;11359;45.802;13.530;2023-01-28T16:11:22;10.43;;;7.80;;
22382;SDS011;11359;45.802;13.530;2023-01-28T16:13:53;10.38;;;7.20;;
22382;SDS011;11359;45.802;13.530;2023-01-28T16:16:26;10.50;;;7.65;;
22382;SDS011;11359;45.802;13.530;2023-01-28T16:19:00;11.00;;;7.72;;
22382;SDS011;11359;45.802;13.530;2023-01-28T16:24:27;10.02;;;7.10;;
22382;SDS011;11359;45.802;13.530;2023-01-28T16:29:26;10.45;;;7.18;;
22382;SDS011;11359;45.802;13.530;2023-01-28T16:31:53;9.00;;;6.03;;
22382;SDS011;11359;45.802;13.530;2023-01-28T16:34:19;8.45;;;5.95;;
22382;SDS011;11359;45.802;13.530;2023-01-28T16:36:45;7.93;;;5.68;;
22382;SDS011;11359;45.802;13.530;2023-01-28T16:39:11;6.88;;;5.28;;
22382;SDS011;11359;45.802;13.530;2023-01-28T16:41:37;7.32;;;5.45;;
22382;SDS011;11359;45.802;13.530;2023-01-28T16:44:11;7.25;;;5.30;;
22382;SDS011;11359;45.802;13.530;2023-01-28T16:46:38;6.40;;;4.57;;
22382;SDS011;11359;45.802;13.530;2023-01-28T16:49:03;7.90;;;6.10;;
22382;SDS011;11359;45.802;13.530;2023-01-28T16:51:29;9.30;;;6.00;;
22382;SDS011;11359;45.802;13.530;2023-01-28T16:53:55;9.23;;;6.85;;
22382;SDS011;11359;45.802;13.530;2023-01-28T16:56:22;8.25;;;5.95;;
22382;SDS011;11359;45.802;13.530;2023-01-28T16:58:51;7.03;;;4.90;;
22382;SDS011;11359;45.802;13.530;2023-01-28T17:01:17;6.10;;;4.43;;
22382;SDS011;11359;45.802;13.530;2023-01-28T17:03:42;6.80;;;4.60;;
22382;SDS011;11359;45.802;13.530;2023-01-28T17:06:08;7.45;;;4.95;;
22382;SDS011;11359;45.802;13.530;2023-01-28T17:08:40;7.70;;;5.43;;
22382;SDS011;11359;45.802;13.530;2023-01-28T17:11:05;7.90;;;5.22;;
22382;SDS011;11359;45.802;13.530;2023-01-28T17:13:31;7.57;;;5.65;;
22382;SDS011;11359;45.802;13.530;2023-01-28T17:16:00;6.05;;;4.72;;
22382;SDS011;11359;45.802;13.530;2023-01-28T17:18:26;6.18;;;4.70;;
22382;SDS011;11359;45.802;13.530;2023-01-28T17:20:53;8.25;;;5.25;;
22382;SDS011;11359;45.802;13.530;2023-01-28T17:23:23;6.50;;;4.88;;